Time;durP1;ratioP1;P1;durP2;ratioP2;P2;SDS_P1;SDS_P2;PMS_P1;PMS_P2;Temp;Humidity;BMP_temperature;BMP_pressure;BME280_temperature;BME280_humidity;BME280_pressure;Samples;Min_cycle;Max_cycle;Signal;HPM_P1;HPM_P2
2023/07/03 00:00:17;;;;;;;1.97;1.90;;;;;;;20.72;75.74;95208.25;4335116;32;20232;-58
2023/07/03 00:02:51;;;;;;;2.40;2.20;;;;;;;20.74;75.48;95211.38;4346462;32;20216;-58
2023/07/03 00:05:17;;;;;;;2.83;2.60;;;;;;;20.68;75.34;95212.81;4290678;32;20208;-60
2023/07/03 00:07:46;;;;;;;9.53;2.07;;;;;;;20.68;75.44;95220.91;4343324;32;20224;-58
2023/07/03 00:10:12;;;;;;;3.77;3.47;;;;;;;20.66;75.55;95210.47;4337201;32;20194;-58
2023/07/03 00:12:39;;;;;;;3.10;2.90;;;;;;;20.58;75.60;95208.78;4319835;32;20208;-59
2023/07/03 00:15:06;;;;;;;2.47;2.37;;;;;;;20.57;75.65;95213.44;4296473;32;20197;-58
2023/07/03 00:17:34;;;;;;;6.60;2.37;;;;;;;20.50;76.19;95217.91;4337225;32;20181;-58
2023/07/03 00:19:59;;;;;;;2.10;2.00;;;;;;;20.50;76.05;95213.31;4326812;32;20217;-58
2023/07/03 00:22:25;;;;;;;3.13;3.00;;;;;;;20.54;76.38;95213.38;4342280;32;20216;-58
2023/07/03 00:24:53;;;;;;;3.80;3.50;;;;;;;20.58;76.25;95216.88;4308329;32;20254;-58
2023/07/03 00:27:22;;;;;;;2.73;2.63;;;;;;;20.59;76.04;95221.13;4351097;32;20197;-59
2023/07/03 00:29:50;;;;;;;2.27;2.17;;;;;;;20.51;76.05;95219.47;4328358;32;20198;-58
2023/07/03 00:32:18;;;;;;;3.70;3.40;;;;;;;20.50;76.26;95218.69;4334168;32;20193;-61
2023/07/03 00:34:45;;;;;;;2.70;2.50;;;;;;;20.42;76.07;95227.78;4323880;32;20264;-59
2023/07/03 00:37:11;;;;;;;3.00;2.63;;;;;;;20.48;76.33;95220.19;4339791;32;20185;-58
2023/07/03 00:39:36;;;;;;;2.57;2.47;;;;;;;20.46;76.26;95217.06;4315575;32;20349;-58
2023/07/03 00:42:04;;;;;;;3.50;2.20;;;;;;;20.46;76.33;95223.25;4333593;32;20193;-58
2023/07/03 00:44:32;;;;;;;2.60;2.50;;;;;;;20.45;76.05;95227.06;4336885;32;20253;-59
2023/07/03 00:47:08;;;;;;;2.20;2.10;;;;;;;20.36;76.48;95229.19;4336842;32;20259;-58
2023/07/03 00:49:37;;;;;;;2.53;2.43;;;;;;;20.35;76.46;95233.03;4344712;32;20177;-58
2023/07/03 00:52:13;;;;;;;3.47;3.27;;;;;;;20.34;76.93;95233.38;4332306;32;20220;-58
2023/07/03 00:54:40;;;;;;;3.23;2.97;;;;;;;20.37;76.89;95230.75;4346845;32;20293;-58
2023/07/03 00:57:11;;;;;;;4.00;3.13;;;;;;;20.28;77.35;95224.81;4317069;32;20188;-58
2023/07/03 00:59:40;;;;;;;2.33;2.23;;;;;;;20.20;77.45;95247.34;4289154;32;20327;-58
2023/07/03 01:02:19;;;;;;;4.37;3.43;;;;;;;20.21;77.34;95228.16;4311347;32;20201;-59
2023/07/03 01:04:55;;;;;;;5.17;2.63;;;;;;;20.25;77.41;95230.91;4330063;32;20192;-58
2023/07/03 01:07:28;;;;;;;4.43;4.03;;;;;;;20.22;77.63;95231.63;4326736;32;20182;-58
2023/07/03 01:09:59;;;;;;;4.60;4.30;;;;;;;20.17;77.70;95229.19;4320076;32;20237;-58
2023/07/03 01:12:30;;;;;;;3.30;3.00;;;;;;;20.09;77.86;95219.44;4316308;32;20203;-58
2023/07/03 01:15:01;;;;;;;4.03;2.50;;;;;;;20.18;77.75;95225.38;4313090;32;20190;-58
2023/07/03 01:17:29;;;;;;;2.67;2.57;;;;;;;20.19;77.73;95224.25;4286852;33;20201;-58
2023/07/03 01:20:00;;;;;;;1.80;1.70;;;;;;;20.17;77.74;95223.81;4297928;33;20256;-58
2023/07/03 01:23:04;;;;;;;2.73;2.60;;;;;;;20.14;77.68;95235.34;4335404;32;20190;-58
2023/07/03 01:25:32;;;;;;;3.00;2.70;;;;;;;20.13;77.77;95231.06;4300205;32;20208;-59
2023/07/03 01:28:03;;;;;;;4.63;4.33;;;;;;;20.12;77.75;95238.37;4305293;32;20209;-58
2023/07/03 01:30:34;;;;;;;3.80;3.50;;;;;;;20.10;77.89;95231.78;4310762;33;20198;-58
2023/07/03 01:33:13;;;;;;;2.87;2.67;;;;;;;19.99;78.30;95241.56;4325005;33;20186;-58
2023/07/03 01:35:40;;;;;;;4.53;3.90;;;;;;;20.09;78.17;95235.59;4308067;32;20190;-58
2023/07/03 01:38:29;;;;;;;4.60;4.20;;;;;;;20.10;77.80;95231.78;4317138;32;20451;-59
2023/07/03 01:40:58;;;;;;;6.70;2.90;;;;;;;20.01;78.18;95244.69;4324786;32;20202;-59
2023/07/03 01:43:30;;;;;;;3.10;2.93;;;;;;;20.05;78.33;95245.53;4314634;32;20293;-58
2023/07/03 01:45:56;;;;;;;2.80;2.60;;;;;;;20.00;78.20;95245.81;4315856;32;20222;-59
2023/07/03 01:48:27;;;;;;;3.40;3.13;;;;;;;19.96;78.16;95244.94;4307455;32;20189;-58
2023/07/03 01:50:55;;;;;;;3.57;2.87;;;;;;;19.98;78.28;95246.16;4283792;32;20256;-59
2023/07/03 01:53:41;;;;;;;3.17;2.97;;;;;;;19.97;78.33;95238.44;4308886;33;20204;-58
2023/07/03 01:56:23;;;;;;;3.37;3.17;;;;;;;19.98;78.25;95234.59;4319942;32;20281;-58
2023/07/03 01:59:08;;;;;;;4.47;3.73;;;;;;;20.02;78.15;95238.94;4320941;32;20217;-59
2023/07/03 02:02:00;;;;;;;4.30;2.93;;;;;;;20.07;78.11;95241.34;4305892;32;20202;-59
2023/07/03 02:04:37;;;;;;;2.53;2.37;;;;;;;20.12;77.88;95237.59;4308241;32;20229;-58
2023/07/03 02:07:07;;;;;;;2.63;2.47;;;;;;;20.13;77.72;95239.16;4318809;32;20228;-59
2023/07/03 02:09:34;;;;;;;2.87;2.77;;;;;;;20.10;77.45;95237.16;4323682;32;20252;-59
2023/07/03 02:12:03;;;;;;;3.07;2.97;;;;;;;20.08;77.87;95234.06;4332940;32;20197;-58
2023/07/03 02:14:30;;;;;;;2.43;2.33;;;;;;;20.02;77.68;95227.38;4312013;32;20198;-59
2023/07/03 02:16:56;;;;;;;3.47;3.17;;;;;;;20.00;77.78;95232.34;4316931;32;20217;-59
2023/07/03 02:19:33;;;;;;;3.00;2.73;;;;;;;19.96;77.67;95231.50;4323024;32;20216;-59
2023/07/03 02:22:00;;;;;;;3.83;3.53;;;;;;;20.01;77.62;95236.59;4336634;32;20208;-58
2023/07/03 02:24:29;;;;;;;3.20;3.03;;;;;;;19.95;77.63;95241.50;4278542;32;20203;-59
2023/07/03 02:26:55;;;;;;;3.47;3.23;;;;;;;19.95;77.06;95240.72;4321781;32;20233;-59
2023/07/03 02:29:22;;;;;;;3.30;3.10;;;;;;;19.95;77.37;95240.72;4350421;32;20201;-58
2023/07/03 02:31:49;;;;;;;2.70;2.60;;;;;;;20.02;77.24;95247.00;4326959;32;20240;-58
2023/07/03 02:34:14;;;;;;;3.30;3.10;;;;;;;19.95;77.18;95240.72;4330357;32;20252;-58
2023/07/03 02:36:40;;;;;;;8.73;4.20;;;;;;;19.99;77.18;95241.56;4319627;32;20198;-59
2023/07/03 02:39:09;;;;;;;4.83;3.77;;;;;;;19.94;77.19;95249.94;4322777;32;20268;-58
2023/07/03 02:41:37;;;;;;;3.17;2.97;;;;;;;19.90;76.72;95247.94;4340421;32;20299;-58
2023/07/03 02:44:04;;;;;;;3.17;3.03;;;;;;;19.90;76.65;95245.25;4317558;32;20194;-58
2023/07/03 02:46:35;;;;;;;3.57;3.37;;;;;;;19.98;76.74;95242.69;4330794;32;20198;-59
2023/07/03 02:49:00;;;;;;;3.17;2.97;;;;;;;19.92;76.83;95246.81;4332163;32;20214;-58
2023/07/03 02:51:29;;;;;;;6.27;4.93;;;;;;;19.93;76.64;95248.38;4330126;32;20205;-58
2023/07/03 02:53:56;;;;;;;3.83;3.23;;;;;;;19.95;75.94;95254.19;4332935;32;20201;-58
2023/07/03 02:56:23;;;;;;;3.57;3.33;;;;;;;19.96;76.28;95248.44;4301884;32;20220;-58
2023/07/03 02:58:48;;;;;;;2.57;2.43;;;;;;;19.96;76.44;95253.81;4322927;32;20194;-58
2023/07/03 03:01:15;;;;;;;2.97;2.73;;;;;;;19.85;75.63;95250.91;4342126;32;20190;-60
2023/07/03 03:03:51;;;;;;;8.47;3.70;;;;;;;19.93;76.22;95248.38;4341514;32;20189;-58
2023/07/03 03:06:17;;;;;;;2.77;2.67;;;;;;;19.93;76.54;95245.69;4308300;32;20204;-59
2023/07/03 03:08:45;;;;;;;4.20;3.23;;;;;;;19.87;76.26;95248.66;4329110;32;20247;-58
2023/07/03 03:11:13;;;;;;;3.87;3.57;;;;;;;19.94;76.46;95252.63;4328476;32;20249;-58
2023/07/03 03:13:39;;;;;;;3.67;3.57;;;;;;;19.85;75.83;95248.22;4338833;32;20260;-58
2023/07/03 03:16:06;;;;;;;3.80;3.60;;;;;;;19.89;75.40;95251.00;4330263;32;20253;-58
2023/07/03 03:18:33;;;;;;;2.67;2.57;;;;;;;19.89;75.22;95251.78;4341562;32;20205;-57
2023/07/03 03:20:58;;;;;;;3.17;2.97;;;;;;;19.90;75.13;95255.25;4334084;32;20269;-58
2023/07/03 03:23:24;;;;;;;4.53;3.20;;;;;;;19.92;75.01;95257.59;4336390;32;20241;-58
2023/07/03 03:25:54;;;;;;;3.83;3.63;;;;;;;19.90;74.74;95257.94;4293849;32;20254;-58
2023/07/03 03:28:22;;;;;;;4.40;4.10;;;;;;;19.85;74.58;95250.91;4312631;32;20198;-58
2023/07/03 03:30:50;;;;;;;3.93;3.23;;;;;;;19.81;73.93;95252.75;4326924;32;20212;-57
2023/07/03 03:33:15;;;;;;;3.47;3.17;;;;;;;19.85;74.35;95255.53;4334046;32;20227;-58
2023/07/03 03:35:42;;;;;;;4.37;3.40;;;;;;;19.88;74.02;95252.91;4340912;32;20190;-58
2023/07/03 03:38:07;;;;;;;3.27;3.07;;;;;;;19.78;73.03;95252.69;4317554;32;20280;-58
2023/07/03 03:40:32;;;;;;;3.27;3.07;;;;;;;19.80;73.25;95256.56;4341760;32;20324;-59
2023/07/03 03:43:01;;;;;;;10.30;3.73;;;;;;;19.78;72.79;95258.84;4340505;32;20210;-58
2023/07/03 03:45:29;;;;;;;2.93;2.83;;;;;;;19.82;73.04;95257.00;4301288;32;20219;-57
2023/07/03 03:47:55;;;;;;;3.13;2.93;;;;;;;19.81;72.97;95252.75;4346591;32;20227;-58
2023/07/03 03:50:20;;;;;;;4.13;3.83;;;;;;;19.82;73.12;95258.91;4338086;32;20206;-58
2023/07/03 03:52:47;;;;;;;5.10;4.63;;;;;;;19.87;73.00;95264.03;4346622;32;20201;-60
2023/07/03 03:55:15;;;;;;;3.67;3.37;;;;;;;19.77;72.72;95259.97;4344904;32;20186;-59
2023/07/03 03:57:42;;;;;;;6.07;4.30;;;;;;;19.76;72.44;95260.31;4328818;32;20193;-58
2023/07/03 04:00:16;;;;;;;3.33;3.13;;;;;;;19.71;72.38;95261.41;4330173;32;20320;-58
2023/07/03 04:02:43;;;;;;;5.40;5.00;;;;;;;19.61;72.10;95253.88;4329638;32;20185;-58
2023/07/03 04:05:11;;;;;;;3.30;3.00;;;;;;;19.68;71.93;95255.94;4340617;32;20238;-58
2023/07/03 04:07:38;;;;;;;3.50;3.20;;;;;;;19.70;71.95;95256.38;4288664;32;20294;-56
2023/07/03 04:10:05;;;;;;;3.60;3.40;;;;;;;19.60;70.71;95255.00;4331021;32;20255;-58
2023/07/03 04:12:32;;;;;;;5.60;3.43;;;;;;;19.66;71.15;95264.38;4328955;32;20193;-58
2023/07/03 04:15:00;;;;;;;3.07;2.87;;;;;;;19.65;70.58;95253.94;4331638;32;20205;-58
2023/07/03 04:17:26;;;;;;;2.90;2.80;;;;;;;19.69;70.97;95260.97;4316734;32;20201;-59
2023/07/03 04:19:56;;;;;;;3.33;3.17;;;;;;;19.65;70.92;95264.72;4336412;32;20214;-58
2023/07/03 04:22:23;;;;;;;3.43;3.33;;;;;;;19.63;70.90;95267.75;4330206;32;20205;-58
2023/07/03 04:24:48;;;;;;;4.20;3.80;;;;;;;19.68;70.83;95270.19;4314868;32;20217;-61
2023/07/03 04:27:14;;;;;;;4.33;4.03;;;;;;;19.71;70.30;95269.47;4341460;32;20223;-58
2023/07/03 04:29:42;;;;;;;4.37;4.07;;;;;;;19.76;70.70;95274.56;4320454;32;20190;-58
2023/07/03 04:32:07;;;;;;;3.53;3.33;;;;;;;19.76;70.46;95277.25;4335633;32;20221;-58
2023/07/03 04:34:34;;;;;;;3.70;3.50;;;;;;;19.75;70.63;95275.69;4340952;32;20190;-58
2023/07/03 04:37:00;;;;;;;2.33;2.23;;;;;;;19.79;71.23;95276.56;4334889;32;20198;-59
2023/07/03 04:39:26;;;;;;;4.50;2.90;;;;;;;19.83;70.77;95282.03;4320743;32;20269;-58
2023/07/03 04:41:52;;;;;;;4.00;3.57;;;;;;;19.84;70.36;95281.66;4339645;32;20214;-58
2023/07/03 04:44:18;;;;;;;3.23;3.10;;;;;;;19.88;70.10;95282.53;4340667;32;20215;-58
2023/07/03 04:46:45;;;;;;;3.47;3.27;;;;;;;19.94;70.29;95280.34;4317617;32;20202;-58
2023/07/03 04:49:12;;;;;;;3.90;3.70;;;;;;;19.88;69.74;95282.53;4319251;32;20190;-59
2023/07/03 04:51:39;;;;;;;4.60;3.77;;;;;;;19.98;71.05;95272.31;4316515;32;20224;-58
2023/07/03 04:54:07;;;;;;;3.80;3.53;;;;;;;19.93;68.73;95278.78;4340691;32;20247;-58
2023/07/03 04:56:35;;;;;;;3.27;3.07;;;;;;;19.97;69.04;95276.13;4310527;32;20190;-58
2023/07/03 04:59:02;;;;;;;3.70;3.50;;;;;;;19.97;69.57;95268.84;4322919;32;20258;-58
2023/07/03 05:01:29;;;;;;;3.97;3.67;;;;;;;19.92;68.31;95276.44;4328713;32;20247;-58
2023/07/03 05:03:57;;;;;;;4.93;3.80;;;;;;;19.92;68.91;95279.12;4327731;32;20205;-58
2023/07/03 05:06:26;;;;;;;3.67;3.47;;;;;;;19.87;68.21;95270.19;4337166;32;20244;-58
2023/07/03 05:08:53;;;;;;;4.80;3.67;;;;;;;19.79;66.73;95281.94;4308753;32;20250;-59
2023/07/03 05:11:18;;;;;;;4.37;3.90;;;;;;;19.82;67.67;95278.53;4317074;32;20245;-59
2023/07/03 05:13:45;;;;;;;4.43;4.17;;;;;;;19.83;67.06;95280.09;4323360;32;20189;-58
2023/07/03 05:16:10;;;;;;;4.17;3.87;;;;;;;19.85;67.13;95283.22;4335769;32;20198;-58
2023/07/03 05:18:35;;;;;;;4.03;3.73;;;;;;;19.84;65.95;95284.38;4338569;32;20315;-58
2023/07/03 05:21:01;;;;;;;3.03;2.87;;;;;;;19.84;67.07;95283.59;4355876;32;20233;-57
2023/07/03 05:23:26;;;;;;;3.27;3.07;;;;;;;19.80;66.94;95283.50;4339397;32;20259;-58
2023/07/03 05:25:52;;;;;;;4.23;3.90;;;;;;;19.73;66.90;95280.69;4339525;32;20208;-58
2023/07/03 05:28:17;;;;;;;3.00;2.90;;;;;;;19.71;66.70;95285.63;4335658;32;20240;-58
2023/07/03 05:30:42;;;;;;;3.13;3.03;;;;;;;19.76;69.17;95288.03;4338214;32;20223;-57
2023/07/03 05:33:10;;;;;;;3.13;2.90;;;;;;;19.67;66.63;95290.16;4336312;32;20198;-57
2023/07/03 05:35:36;;;;;;;3.90;3.60;;;;;;;19.52;67.00;95293.66;4339514;32;20197;-58
2023/07/03 05:38:02;;;;;;;5.07;3.77;;;;;;;19.52;66.65;95288.28;4338322;32;20204;-58
2023/07/03 05:40:28;;;;;;;4.27;3.87;;;;;;;19.70;69.90;95292.16;4333797;32;20185;-58
2023/07/03 05:42:53;;;;;;;4.33;4.00;;;;;;;19.76;69.20;95288.03;4338453;32;20245;-58
2023/07/03 05:45:18;;;;;;;3.57;3.27;;;;;;;19.82;67.44;95299.31;4336132;32;20201;-58
2023/07/03 05:47:44;;;;;;;5.97;4.07;;;;;;;19.85;68.87;95301.28;4338111;32;20210;-57
2023/07/03 05:50:09;;;;;;;3.83;3.53;;;;;;;19.88;67.13;95301.38;4341853;32;20190;-58
2023/07/03 05:52:38;;;;;;;3.43;3.23;;;;;;;20.02;68.66;95300.88;4347370;32;20279;-58
2023/07/03 05:55:04;;;;;;;3.90;3.70;;;;;;;19.98;65.73;95305.41;4337029;32;20207;-57
2023/07/03 05:57:30;;;;;;;5.23;4.50;;;;;;;19.95;65.87;95305.37;4340082;32;20201;-58
2023/07/03 05:59:55;;;;;;;3.10;2.90;;;;;;;19.94;67.59;95306.50;4341091;32;20237;-57
2023/07/03 06:02:20;;;;;;;7.57;4.07;;;;;;;20.08;66.94;95309.47;4342140;32;20272;-58
2023/07/03 06:04:46;;;;;;;7.43;5.13;;;;;;;19.68;65.25;95307.88;4338441;32;20204;-57
2023/07/03 06:07:11;;;;;;;3.37;3.17;;;;;;;19.99;67.54;95314.28;4338780;32;20208;-57
2023/07/03 06:09:37;;;;;;;4.40;3.70;;;;;;;20.11;66.84;95314.16;4338305;32;20189;-58
2023/07/03 06:12:03;;;;;;;4.67;4.27;;;;;;;20.03;65.54;95310.53;4352746;32;20194;-57
2023/07/03 06:14:30;;;;;;;3.73;3.53;;;;;;;20.21;65.59;95316.28;4332002;32;20211;-58
2023/07/03 06:16:57;;;;;;;3.03;2.83;;;;;;;20.19;65.58;95313.16;4337981;32;20225;-57
2023/07/03 06:19:24;;;;;;;10.30;4.93;;;;;;;19.97;63.00;95303.84;4339626;32;20216;-58
2023/07/03 06:21:49;;;;;;;8.60;4.27;;;;;;;20.25;68.20;95314.44;4338269;32;20223;-58
2023/07/03 06:24:17;;;;;;;4.87;4.10;;;;;;;20.33;65.92;95310.75;4336869;32;20202;-58
2023/07/03 06:26:43;;;;;;;3.90;3.60;;;;;;;20.07;62.05;95316.00;4341518;32;20197;-58
2023/07/03 06:29:10;;;;;;;3.93;3.40;;;;;;;20.09;65.36;95321.81;4333952;32;20221;-58
2023/07/03 06:31:36;;;;;;;7.57;3.57;;;;;;;20.15;65.49;95321.19;4338944;32;20226;-58
2023/07/03 06:34:03;;;;;;;12.40;5.93;;;;;;;20.18;62.51;95316.97;4338023;32;20253;-58
2023/07/03 06:36:28;;;;;;;4.00;3.40;;;;;;;20.39;66.18;95320.13;4340219;32;20295;-58
2023/07/03 06:38:55;;;;;;;3.70;3.03;;;;;;;20.03;63.64;95317.81;4337606;32;20194;-58
2023/07/03 06:41:21;;;;;;;4.17;3.77;;;;;;;19.96;65.20;95326.53;4339213;32;20205;-58
2023/07/03 06:43:47;;;;;;;4.40;4.07;;;;;;;20.09;65.23;95319.91;4341978;32;20197;-58
2023/07/03 06:46:13;;;;;;;3.93;3.53;;;;;;;19.96;63.34;95317.66;4348963;32;20194;-58
2023/07/03 06:48:38;;;;;;;2.30;2.20;;;;;;;19.99;63.93;95316.97;4345527;32;20197;-58
2023/07/03 06:51:10;;;;;;;5.17;3.87;;;;;;;20.05;nan;95316.34;4343384;32;20189;-58
2023/07/03 06:53:38;;;;;;;3.13;2.83;;;;;;;20.01;64.20;95312.00;4278397;32;20229;-58
2023/07/03 06:56:08;;;;;;;3.57;3.27;;;;;;;19.93;65.34;95319.19;4289438;32;20198;-59
2023/07/03 06:58:36;;;;;;;1.97;1.87;;;;;;;20.25;66.39;95314.44;4326737;32;20197;-58
2023/07/03 07:01:18;;;;;;;3.83;3.43;;;;;;;20.41;66.19;95317.84;4334978;32;20202;-58
2023/07/03 07:03:48;;;;;;;7.70;3.70;;;;;;;20.49;65.26;95314.16;4319974;32;20208;-57
2023/07/03 07:06:49;;;;;;;4.83;3.67;;;;;;;20.37;61.95;95313.56;4290024;32;20364;-57
2023/07/03 07:09:17;;;;;;;3.87;3.27;;;;;;;20.47;65.80;95326.44;4286746;32;20269;-57
2023/07/03 07:11:46;;;;;;;4.50;4.17;;;;;;;20.40;64.94;95316.28;4270403;33;20213;-58
2023/07/03 07:14:12;;;;;;;4.23;4.03;;;;;;;20.40;64.38;95310.12;4288779;33;20230;-57
2023/07/03 07:16:40;;;;;;;4.17;3.87;;;;;;;20.47;65.04;95312.97;4278951;32;20206;-58
2023/07/03 07:19:07;;;;;;;3.23;2.97;;;;;;;20.39;63.36;95319.34;4275080;32;20226;-57
2023/07/03 07:21:35;;;;;;;2.87;2.67;;;;;;;20.32;65.47;95317.28;4260993;32;20251;-57
2023/07/03 07:24:12;;;;;;;2.53;2.43;;;;;;;20.44;65.44;95314.44;4285768;32;20239;-57
2023/07/03 07:26:38;;;;;;;3.10;2.37;;;;;;;20.52;66.10;95318.84;4263897;32;20405;-57
2023/07/03 07:29:05;;;;;;;3.70;3.47;;;;;;;20.64;65.19;95309.03;4299628;33;20198;-57
2023/07/03 07:31:36;;;;;;;3.30;3.03;;;;;;;20.60;64.36;95308.97;4335854;32;20279;-57
2023/07/03 07:34:07;;;;;;;2.70;2.53;;;;;;;20.48;64.47;95306.44;4314129;32;20225;-58
2023/07/03 07:36:33;;;;;;;3.53;3.33;;;;;;;20.44;64.55;95309.06;4346086;32;20194;-58
2023/07/03 07:39:00;;;;;;;4.23;3.93;;;;;;;20.64;65.58;95300.94;4325290;32;20197;-58
2023/07/03 07:41:28;;;;;;;3.33;3.13;;;;;;;20.55;66.24;95306.56;4322233;32;20284;-58
2023/07/03 07:43:58;;;;;;;2.90;2.70;;;;;;;20.62;65.52;95295.12;4308821;32;20197;-58
2023/07/03 07:46:29;;;;;;;2.97;2.77;;;;;;;20.75;65.03;95299.22;4319567;32;20197;-57
2023/07/03 07:48:58;;;;;;;6.30;3.73;;;;;;;20.67;64.66;95298.31;4326858;32;20193;-58
2023/07/03 07:51:28;;;;;;;3.57;3.27;;;;;;;20.67;62.57;95297.53;4313231;32;20194;-57
2023/07/03 07:53:57;;;;;;;2.60;2.50;;;;;;;20.69;62.46;95304.13;4327627;32;20203;-59
2023/07/03 07:56:25;;;;;;;3.03;2.93;;;;;;;20.79;63.25;95306.22;4324360;32;20190;-59
2023/07/03 07:58:53;;;;;;;4.33;3.23;;;;;;;20.79;63.46;95313.53;4338897;32;20182;-59
2023/07/03 08:01:24;;;;;;;2.50;2.30;;;;;;;20.64;61.48;95314.44;4321656;32;20231;-59
2023/07/03 08:03:49;;;;;;;2.30;2.10;;;;;;;20.75;61.61;95307.31;4327166;32;20203;-59
2023/07/03 08:06:16;;;;;;;3.17;2.97;;;;;;;20.85;62.68;95304.03;4341317;32;20201;-59
2023/07/03 08:08:43;;;;;;;3.43;3.23;;;;;;;20.86;62.73;95303.66;4335667;32;20186;-58
2023/07/03 08:11:09;;;;;;;3.27;3.07;;;;;;;20.88;62.36;95301.38;4346488;32;20277;-59
2023/07/03 08:13:39;;;;;;;2.57;2.37;;;;;;;20.81;62.17;95293.16;4336781;32;20202;-59
2023/07/03 08:16:08;;;;;;;4.97;3.73;;;;;;;20.90;62.45;95295.63;4294252;32;20194;-59
2023/07/03 08:18:35;;;;;;;3.23;3.03;;;;;;;20.81;62.39;95303.16;4325085;32;20224;-60
2023/07/03 08:21:03;;;;;;;3.73;3.23;;;;;;;20.94;62.10;95307.28;4296206;32;20225;-59
2023/07/03 08:23:30;;;;;;;4.90;2.20;;;;;;;20.99;61.90;95304.25;4335470;32;20181;-60
2023/07/03 08:25:56;;;;;;;2.77;2.57;;;;;;;20.98;61.92;95308.13;4314201;32;20253;-59
2023/07/03 08:28:22;;;;;;;2.50;2.40;;;;;;;20.85;62.02;95304.78;4341795;32;20190;-59
2023/07/03 08:30:52;;;;;;;2.43;2.23;;;;;;;20.96;61.94;95310.41;4319170;32;20235;-58
2023/07/03 08:33:19;;;;;;;2.63;2.53;;;;;;;21.01;61.33;95306.59;4328528;32;20246;-60
2023/07/03 08:35:46;;;;;;;4.53;3.23;;;;;;;20.92;61.52;95307.63;4342504;32;20284;-58
2023/07/03 08:38:12;;;;;;;2.80;2.53;;;;;;;20.99;61.05;95301.56;4343311;32;20190;-58
2023/07/03 08:40:39;;;;;;;2.73;2.53;;;;;;;20.87;61.43;95297.13;4323559;32;20216;-59
2023/07/03 08:43:13;;;;;;;1.57;1.43;;;;;;;20.98;61.18;95296.53;4344249;32;20236;-58
2023/07/03 08:45:44;;;;;;;3.30;3.17;;;;;;;20.93;60.96;95292.22;4284797;32;20278;-59
2023/07/03 08:48:34;;;;;;;2.57;2.37;;;;;;;20.91;61.10;95297.19;4325203;32;20189;-65
2023/07/03 08:51:02;;;;;;;3.00;2.80;;;;;;;20.73;60.82;95296.13;4327367;32;20229;-66
2023/07/03 08:53:34;;;;;;;2.50;2.40;;;;;;;20.63;60.72;95292.06;4312579;32;20192;-66
2023/07/03 08:56:12;;;;;;;5.07;3.37;;;;;;;20.68;61.82;95291.78;4338381;32;20198;-66
2023/07/03 08:58:41;;;;;;;2.13;2.03;;;;;;;20.59;61.76;95300.09;4335499;32;20189;-66
2023/07/03 09:01:38;;;;;;;2.63;2.37;;;;;;;20.64;62.26;95290.16;4341351;32;22218;-66
2023/07/03 09:04:38;;;;;;;4.07;1.93;;;;;;;20.72;61.47;95303.41;4340360;32;20173;-66
2023/07/03 09:07:18;;;;;;;2.00;1.90;;;;;;;20.72;60.61;95297.25;4327419;32;20199;-65
2023/07/03 09:10:12;;;;;;;2.50;2.30;;;;;;;20.68;61.70;95291.00;4300129;32;20265;-65
2023/07/03 09:13:05;;;;;;;1.27;1.27;;;;;;;20.78;58.71;95290.44;4334339;32;20233;-65
2023/07/03 09:15:40;;;;;;;2.10;1.87;;;;;;;20.82;61.38;95297.41;4325697;32;20243;-65
2023/07/03 09:18:24;;;;;;;2.13;1.57;;;;;;;20.81;59.34;95303.16;4344350;32;20200;-67
2023/07/03 09:20:50;;;;;;;2.63;2.43;;;;;;;20.89;59.83;95310.25;4337598;32;20198;-66
2023/07/03 09:23:27;;;;;;;1.57;1.50;;;;;;;20.93;60.24;95301.09;4339895;32;20255;-66
2023/07/03 09:26:31;;;;;;;3.93;1.43;;;;;;;20.95;58.77;95303.44;4330132;32;20192;-66
2023/07/03 09:29:03;;;;;;;4.07;2.80;;;;;;;20.96;58.36;95321.19;4341322;32;20189;-66
2023/07/03 09:31:30;;;;;;;2.93;2.40;;;;;;;20.88;57.87;95314.09;4302058;32;20221;-65
2023/07/03 09:33:56;;;;;;;1.50;1.40;;;;;;;20.92;58.41;95317.62;4329072;32;20193;-65
2023/07/03 09:36:34;;;;;;;1.67;1.57;;;;;;;20.91;57.55;95322.25;4338497;32;20359;-65
2023/07/03 09:39:14;;;;;;;1.90;1.80;;;;;;;20.92;58.96;95309.53;4325488;32;20204;-65
2023/07/03 09:41:40;;;;;;;1.73;1.63;;;;;;;21.00;58.66;95316.59;4297956;32;20310;-65
2023/07/03 09:44:18;;;;;;;3.37;1.90;;;;;;;21.04;59.73;95322.84;4326982;32;20221;-65
2023/07/03 09:46:55;;;;;;;1.23;1.20;;;;;;;21.09;57.55;95313.69;4311578;32;20229;-65
2023/07/03 09:49:28;;;;;;;2.93;2.33;;;;;;;21.10;58.22;95310.62;4282515;32;20313;-67
2023/07/03 09:52:04;;;;;;;3.00;1.63;;;;;;;21.22;57.72;95310.44;4319846;32;20214;-66
2023/07/03 09:54:31;;;;;;;2.03;1.93;;;;;;;21.30;58.22;95305.19;4337997;32;20254;-65
2023/07/03 09:57:01;;;;;;;2.13;1.50;;;;;;;21.46;58.52;95305.81;4286776;32;20245;-66
2023/07/03 09:59:31;;;;;;;1.47;1.47;;;;;;;21.70;56.68;95301.91;4322315;32;20215;-65
2023/07/03 10:02:02;;;;;;;2.07;1.97;;;;;;;21.75;57.46;95302.38;4345903;32;20232;-59
2023/07/03 10:04:31;;;;;;;1.63;1.53;;;;;;;21.87;62.47;95310.25;4330145;32;20194;-59
2023/07/03 10:07:13;;;;;;;2.97;2.77;;;;;;;21.77;60.53;95312.81;4310247;32;20193;-59
2023/07/03 10:09:46;;;;;;;1.30;1.30;;;;;;;21.75;60.23;95301.59;4284412;33;20202;-59
2023/07/03 10:12:47;;;;;;;3.10;1.80;;;;;;;21.62;59.67;95309.12;4328504;32;20253;-59
2023/07/03 10:15:28;;;;;;;3.40;1.53;;;;;;;21.52;59.42;95309.75;4344136;32;20189;-59
2023/07/03 10:18:00;;;;;;;2.83;1.57;;;;;;;21.52;59.54;95304.34;4345119;32;20199;-59
2023/07/03 10:20:34;;;;;;;3.13;1.60;;;;;;;21.38;59.02;95313.03;4305153;32;20197;-59
2023/07/03 10:23:04;;;;;;;1.03;1.03;;;;;;;21.38;60.06;95314.94;4339205;32;20200;-59
2023/07/03 10:25:54;;;;;;;2.10;1.77;;;;;;;21.39;59.54;95311.13;4323502;32;20189;-61
2023/07/03 10:28:36;;;;;;;2.60;2.40;;;;;;;21.39;59.74;95311.13;4327875;32;20312;-59
2023/07/03 10:31:07;;;;;;;2.77;2.00;;;;;;;21.28;60.19;95310.94;4336975;32;20256;-59
2023/07/03 10:33:49;;;;;;;1.63;1.53;;;;;;;21.32;59.36;95321.78;4333854;32;20193;-58
2023/07/03 10:36:21;;;;;;;1.10;1.10;;;;;;;21.27;59.67;95320.94;4324900;32;20177;-58
2023/07/03 10:39:18;;;;;;;1.77;1.67;;;;;;;21.21;59.87;95314.28;4332418;32;20211;-59
2023/07/03 10:41:57;;;;;;;4.03;1.87;;;;;;;21.30;59.21;95329.47;4315848;32;20229;-59
2023/07/03 10:44:33;;;;;;;1.03;1.03;;;;;;;21.35;59.21;95310.28;4340725;32;20204;-58
2023/07/03 10:48:03;;;;;;;2.47;1.00;;;;;;;21.39;59.12;95313.81;4339030;32;20210;-61
2023/07/03 10:51:17;;;;;;;2.10;2.00;;;;;;;21.24;59.57;95316.28;4300909;32;20208;-58
2023/07/03 10:54:00;;;;;;;1.63;1.53;;;;;;;21.35;59.94;95311.06;4295210;32;20182;-59
2023/07/03 10:56:44;;;;;;;1.33;1.33;;;;;;;21.27;59.96;95320.94;4343499;32;20215;-59
2023/07/03 10:59:25;;;;;;;2.87;2.47;;;;;;;21.30;60.00;95316.75;4320930;32;20203;-59
2023/07/03 11:02:30;;;;;;;1.73;1.63;;;;;;;21.33;59.84;95312.56;4326389;32;20284;-59
2023/07/03 11:05:14;;;;;;;2.23;2.03;;;;;;;21.40;59.71;95312.66;4331506;32;20197;-59
2023/07/03 11:08:00;;;;;;;1.60;1.50;;;;;;;21.39;59.60;95311.13;4331964;32;20185;-59
2023/07/03 11:11:00;;;;;;;2.07;1.97;;;;;;;21.42;60.02;95313.06;4325951;32;20219;-59
2023/07/03 11:13:37;;;;;;;4.00;2.33;;;;;;;21.43;59.96;95307.31;4317599;32;20208;-59
2023/07/03 11:16:15;;;;;;;1.77;1.67;;;;;;;21.38;60.32;95306.84;4347503;32;20194;-60
2023/07/03 11:18:49;;;;;;;1.83;1.73;;;;;;;21.35;60.51;95307.56;4335220;32;20193;-59
2023/07/03 11:22:13;;;;;;;1.00;0.90;;;;;;;21.35;60.29;95302.97;4288347;32;20185;-59
2023/07/03 11:25:34;;;;;;;1.67;1.57;;;;;;;21.34;60.86;95304.09;4298247;33;20189;-58
2023/07/03 11:28:35;;;;;;;1.40;1.40;;;;;;;21.37;60.27;95299.91;4280856;33;20254;-59
2023/07/03 11:31:06;;;;;;;1.43;1.43;;;;;;;21.40;60.65;95291.06;4232575;33;20196;-58
2023/07/03 11:33:33;;;;;;;2.40;2.20;;;;;;;21.46;60.11;95295.00;4255510;33;20199;-59
2023/07/03 11:36:00;;;;;;;1.23;1.23;;;;;;;21.50;60.09;95295.84;4313027;32;20251;-59
2023/07/03 11:38:27;;;;;;;3.13;1.93;;;;;;;21.41;60.05;95301.47;4344424;32;20185;-59
2023/07/03 11:40:55;;;;;;;1.67;1.57;;;;;;;21.44;60.32;95299.97;4315496;32;20256;-60
2023/07/03 11:43:34;;;;;;;4.30;3.10;;;;;;;21.52;59.94;95293.56;4317782;32;20363;-58
2023/07/03 11:46:16;;;;;;;2.40;2.30;;;;;;;21.47;60.20;95299.25;4331207;32;20211;-61
2023/07/03 11:48:47;;;;;;;4.93;2.47;;;;;;;21.51;59.89;95303.59;4338921;32;20193;-59
2023/07/03 11:51:34;;;;;;;1.97;1.60;;;;;;;21.50;59.80;95298.53;4344902;32;20216;-59
2023/07/03 11:54:12;;;;;;;1.67;1.57;;;;;;;21.39;60.54;95308.41;4294026;32;20189;-60